Haaren, Netherlands
Current Conditions -  °F | °C
As of 1:25 PM on Monday 26 Jan 2015 (Local Time) from EHGR Reporting Station
Heavy Rain Heavy Rain  
Wind Chill: 42°   Ceiling: 500
Heat Index: 46°   Visibility: 1.6mi
Dew Point: 46°   Wind: 9mph
Humidity: 100%   Direction: 270°W
Pressure: 30.06"   Gusts: NA
Location:  51.6°N, 5.22°E
Report Text: EHGR 261225Z AUTO 27008KT 2700 R28/2300 +DZRA SCT003 BKN005 OVC006 08/08 Q1018 YLO 27010KT 4500 BR OVC006 BKN005 TEMPO 2500 DZRA BKN003 OVC004
Loading
Personal Weather Stations






























Interactive Weather Map New forecast layout! Learn more

10-Day Weather Forecast

Advertisements
Track Severe Weather on mobile